<?xml version="1.0" encoding="UTF-8" standalone="no" ?>
<gpx xmlns="http://www.topografix.com/GPX/1/1" xmlns:xsi="http://www.w3.org/2001/XMLSchema-instance" xsi:schemaLocation="http://www.topografix.com/GPX/1/1 http://www.topografix.com/GPX/1/1/gpx.xsd" version="1.1" creator="VisuGPX - https://www.visugpx.com">
  <metadata>
    <name>Rando LN</name>
  </metadata>
  <trk>
    <name><![CDATA[Carlux]]></name>
    <trkseg>
      <trkpt lat="44.89364" lon="1.2279">
        <ele>209.4</ele>
      </trkpt>
      <trkpt lat="44.89364" lon="1.2279">
        <ele>209.4</ele>
      </trkpt>
      <trkpt lat="44.89364" lon="1.2279">
        <ele>209.4</ele>
      </trkpt>
      <trkpt lat="44.89364" lon="1.2279">
        <ele>209.4</ele>
      </trkpt>
      <trkpt lat="44.89364" lon="1.2279">
        <ele>209.4</ele>
      </trkpt>
      <trkpt lat="44.89364" lon="1.2279">
        <ele>209.4</ele>
      </trkpt>
      <trkpt lat="44.89364" lon="1.2279">
        <ele>209.4</ele>
      </trkpt>
      <trkpt lat="44.89364" lon="1.2279">
        <ele>209.4</ele>
      </trkpt>
      <trkpt lat="44.89381" lon="1.22626">
        <ele>197.3</ele>
      </trkpt>
      <trkpt lat="44.89329" lon="1.22428">
        <ele>181.1</ele>
      </trkpt>
      <trkpt lat="44.89286" lon="1.22375">
        <ele>179.5</ele>
      </trkpt>
      <trkpt lat="44.89222" lon="1.22245">
        <ele>173.4</ele>
      </trkpt>
      <trkpt lat="44.89143" lon="1.21996">
        <ele>163</ele>
      </trkpt>
      <trkpt lat="44.89057" lon="1.2188">
        <ele>151.829</ele>
        <time>2020-03-06T15:50:57Z</time>
      </trkpt>
      <trkpt lat="44.88997" lon="1.21867">
        <ele>154.344</ele>
        <time>2015-08-04T11:25:55Z</time>
      </trkpt>
      <trkpt lat="44.88964" lon="1.22022">
        <ele>167.454</ele>
        <time>2015-08-04T11:26:15Z</time>
      </trkpt>
      <trkpt lat="44.88935" lon="1.22079">
        <ele>175.526</ele>
        <time>2020-03-06T15:51:57Z</time>
      </trkpt>
      <trkpt lat="44.88923" lon="1.22119">
        <ele>177.418</ele>
        <time>2020-03-06T15:52:17Z</time>
      </trkpt>
      <trkpt lat="44.88921" lon="1.22153">
        <ele>179.819</ele>
        <time>2020-03-06T15:52:37Z</time>
      </trkpt>
      <trkpt lat="44.88916" lon="1.22188">
        <ele>184.845</ele>
        <time>2020-03-06T15:52:57Z</time>
      </trkpt>
      <trkpt lat="44.88937" lon="1.22251">
        <ele>192.337</ele>
        <time>2015-08-04T11:27:15Z</time>
      </trkpt>
      <trkpt lat="44.88913" lon="1.22348">
        <ele>193.235</ele>
        <time>2015-08-04T11:27:35Z</time>
      </trkpt>
      <trkpt lat="44.8893" lon="1.22502">
        <ele>204.086</ele>
        <time>2015-08-04T11:27:55Z</time>
      </trkpt>
      <trkpt lat="44.88924" lon="1.22536">
        <ele>205.114</ele>
        <time>2015-08-04T11:28:15Z</time>
      </trkpt>
      <trkpt lat="44.88849" lon="1.22573">
        <ele>210.008</ele>
        <time>2015-08-04T11:28:35Z</time>
      </trkpt>
      <trkpt lat="44.88829" lon="1.22598">
        <ele>211.569</ele>
        <time>2015-08-04T11:28:55Z</time>
      </trkpt>
      <trkpt lat="44.88821" lon="1.22644">
        <ele>213.644</ele>
        <time>2015-08-04T11:29:15Z</time>
      </trkpt>
      <trkpt lat="44.88823" lon="1.22701">
        <ele>216.174</ele>
        <time>2015-08-04T11:29:35Z</time>
      </trkpt>
      <trkpt lat="44.88842" lon="1.22769">
        <ele>223.946</ele>
        <time>2015-08-04T11:29:55Z</time>
      </trkpt>
      <trkpt lat="44.88819" lon="1.22853">
        <ele>231.698</ele>
        <time>2015-08-04T11:30:15Z</time>
      </trkpt>
      <trkpt lat="44.88784" lon="1.22898">
        <ele>234.879</ele>
        <time>2015-08-04T11:30:35Z</time>
      </trkpt>
      <trkpt lat="44.88708" lon="1.22952">
        <ele>241.855</ele>
        <time>2015-08-04T11:30:55Z</time>
      </trkpt>
      <trkpt lat="44.88699" lon="1.2301">
        <ele>247.547</ele>
        <time>2015-08-04T11:31:15Z</time>
      </trkpt>
      <trkpt lat="44.88723" lon="1.23031">
        <ele>252.452</ele>
        <time>2015-08-04T11:31:35Z</time>
      </trkpt>
      <trkpt lat="44.88698" lon="1.23099">
        <ele>252.653</ele>
        <time>2015-08-04T11:31:55Z</time>
      </trkpt>
      <trkpt lat="44.88681" lon="1.23172">
        <ele>248.608</ele>
        <time>2015-08-04T11:32:15Z</time>
      </trkpt>
      <trkpt lat="44.88721" lon="1.23255">
        <ele>247.608</ele>
        <time>2015-08-04T11:32:35Z</time>
      </trkpt>
      <trkpt lat="44.88724" lon="1.23379">
        <ele>249.581</ele>
        <time>2015-08-04T11:32:55Z</time>
      </trkpt>
      <trkpt lat="44.88741" lon="1.23484">
        <ele>245.096</ele>
        <time>2015-08-04T11:33:15Z</time>
      </trkpt>
      <trkpt lat="44.88762" lon="1.23495">
        <ele>244.096</ele>
        <time>2015-08-04T11:33:35Z</time>
      </trkpt>
      <trkpt lat="44.8884" lon="1.23469">
        <ele>241.818</ele>
        <time>2015-08-04T11:33:55Z</time>
      </trkpt>
      <trkpt lat="44.8886" lon="1.23454">
        <ele>242.17</ele>
        <time>2015-08-04T11:34:15Z</time>
      </trkpt>
      <trkpt lat="44.8893" lon="1.23463">
        <ele>241.411</ele>
        <time>2015-08-04T11:34:35Z</time>
      </trkpt>
      <trkpt lat="44.88969" lon="1.2354">
        <ele>241.817</ele>
        <time>2015-08-04T11:34:55Z</time>
      </trkpt>
      <trkpt lat="44.88984" lon="1.2364">
        <ele>242.039</ele>
        <time>2015-08-04T11:35:15Z</time>
      </trkpt>
      <trkpt lat="44.89011" lon="1.23709">
        <ele>242.369</ele>
        <time>2015-08-04T11:35:35Z</time>
      </trkpt>
      <trkpt lat="44.89017" lon="1.23746">
        <ele>238.804</ele>
        <time>2015-08-04T11:35:55Z</time>
      </trkpt>
      <trkpt lat="44.89086" lon="1.23771">
        <ele>234.824</ele>
        <time>2015-08-04T11:36:15Z</time>
      </trkpt>
      <trkpt lat="44.8919" lon="1.23757">
        <ele>225.508</ele>
        <time>2015-08-04T11:36:35Z</time>
      </trkpt>
      <trkpt lat="44.89221" lon="1.2375">
        <ele>225.162</ele>
        <time>2015-08-04T11:36:55Z</time>
      </trkpt>
      <trkpt lat="44.89277" lon="1.23723">
        <ele>225.017</ele>
        <time>2015-08-04T11:37:15Z</time>
      </trkpt>
      <trkpt lat="44.89347" lon="1.23746">
        <ele>207.967</ele>
        <time>2015-08-04T11:37:35Z</time>
      </trkpt>
      <trkpt lat="44.89387" lon="1.23772">
        <ele>206.799</ele>
        <time>2015-08-04T11:37:55Z</time>
      </trkpt>
      <trkpt lat="44.89432" lon="1.23799">
        <ele>209.311</ele>
        <time>2015-08-04T11:38:15Z</time>
      </trkpt>
      <trkpt lat="44.89465" lon="1.23838">
        <ele>206.232</ele>
        <time>2015-08-04T11:38:35Z</time>
      </trkpt>
      <trkpt lat="44.89475" lon="1.23907">
        <ele>206.828</ele>
        <time>2015-08-04T11:38:55Z</time>
      </trkpt>
      <trkpt lat="44.89516" lon="1.2402">
        <ele>216.25</ele>
        <time>2015-08-04T11:39:15Z</time>
      </trkpt>
      <trkpt lat="44.89527" lon="1.24134">
        <ele>221.629</ele>
        <time>2015-08-04T11:39:35Z</time>
      </trkpt>
      <trkpt lat="44.89481" lon="1.242">
        <ele>227.8</ele>
        <time>2015-08-04T11:39:55Z</time>
      </trkpt>
      <trkpt lat="44.8944" lon="1.24317">
        <ele>234.62</ele>
        <time>2015-08-04T11:40:15Z</time>
      </trkpt>
      <trkpt lat="44.89444" lon="1.24424">
        <ele>233.008</ele>
        <time>2015-08-04T11:40:35Z</time>
      </trkpt>
      <trkpt lat="44.89456" lon="1.24484">
        <ele>235.598</ele>
        <time>2015-08-04T11:40:55Z</time>
      </trkpt>
      <trkpt lat="44.89462" lon="1.2456">
        <ele>238.553</ele>
        <time>2015-08-04T11:41:15Z</time>
      </trkpt>
      <trkpt lat="44.89515" lon="1.24603">
        <ele>249.313</ele>
        <time>2015-08-04T11:41:35Z</time>
      </trkpt>
      <trkpt lat="44.89494" lon="1.2468">
        <ele>246.915</ele>
        <time>2015-08-04T11:41:55Z</time>
      </trkpt>
      <trkpt lat="44.89479" lon="1.24764">
        <ele>242.387</ele>
        <time>2015-08-04T11:42:15Z</time>
      </trkpt>
      <trkpt lat="44.89411" lon="1.25044">
        <ele>240.848</ele>
        <time>2015-08-04T11:42:35Z</time>
      </trkpt>
      <trkpt lat="44.89145" lon="1.24939">
        <ele>240.764</ele>
        <time>2015-08-04T11:42:55Z</time>
      </trkpt>
      <trkpt lat="44.88968" lon="1.24852">
        <ele>230.816</ele>
        <time>2015-08-04T11:43:15Z</time>
      </trkpt>
      <trkpt lat="44.88876" lon="1.24821">
        <ele>231.584</ele>
        <time>2015-08-04T11:43:35Z</time>
      </trkpt>
      <trkpt lat="44.88792" lon="1.24803">
        <ele>230.407</ele>
        <time>2015-08-04T11:43:55Z</time>
      </trkpt>
      <trkpt lat="44.8838" lon="1.24963">
        <ele>249.017</ele>
        <time>2015-08-04T11:44:15Z</time>
      </trkpt>
      <trkpt lat="44.88421" lon="1.25065">
        <ele>243.208</ele>
        <time>2015-08-04T11:44:35Z</time>
      </trkpt>
      <trkpt lat="44.88431" lon="1.25122">
        <ele>241.184</ele>
        <time>2015-08-04T11:44:55Z</time>
      </trkpt>
      <trkpt lat="44.88452" lon="1.25167">
        <ele>239.589</ele>
        <time>2015-08-04T11:45:15Z</time>
      </trkpt>
      <trkpt lat="44.88455" lon="1.25192">
        <ele>238.149</ele>
        <time>2015-08-04T11:45:35Z</time>
      </trkpt>
      <trkpt lat="44.88466" lon="1.25216">
        <ele>236.531</ele>
        <time>2015-08-04T11:45:55Z</time>
      </trkpt>
      <trkpt lat="44.88511" lon="1.25241">
        <ele>233.763</ele>
        <time>2015-08-04T11:46:15Z</time>
      </trkpt>
      <trkpt lat="44.88536" lon="1.25257">
        <ele>233.514</ele>
        <time>2015-08-04T11:46:35Z</time>
      </trkpt>
      <trkpt lat="44.88546" lon="1.25272">
        <ele>233.13</ele>
        <time>2015-08-04T11:46:55Z</time>
      </trkpt>
      <trkpt lat="44.88552" lon="1.25312">
        <ele>230.912</ele>
        <time>2015-08-04T11:47:15Z</time>
      </trkpt>
      <trkpt lat="44.88587" lon="1.2536">
        <ele>228.855</ele>
        <time>2015-08-04T11:47:35Z</time>
      </trkpt>
      <trkpt lat="44.8859" lon="1.25397">
        <ele>225.607</ele>
        <time>2015-08-04T11:47:55Z</time>
      </trkpt>
      <trkpt lat="44.88581" lon="1.25425">
        <ele>224.517</ele>
        <time>2015-08-04T11:48:15Z</time>
      </trkpt>
      <trkpt lat="44.88559" lon="1.25444">
        <ele>223.908</ele>
        <time>2015-08-04T11:48:35Z</time>
      </trkpt>
      <trkpt lat="44.88555" lon="1.25459">
        <ele>223.021</ele>
        <time>2015-08-04T11:48:55Z</time>
      </trkpt>
      <trkpt lat="44.88528" lon="1.25501">
        <ele>217.836</ele>
        <time>2015-08-04T11:49:15Z</time>
      </trkpt>
      <trkpt lat="44.88528" lon="1.25537">
        <ele>213.316</ele>
        <time>2015-08-04T11:49:35Z</time>
      </trkpt>
      <trkpt lat="44.88503" lon="1.25567">
        <ele>209.398</ele>
        <time>2015-08-04T11:49:55Z</time>
      </trkpt>
      <trkpt lat="44.88466" lon="1.25677">
        <ele>194.32</ele>
        <time>2015-08-04T11:50:15Z</time>
      </trkpt>
      <trkpt lat="44.88472" lon="1.25755">
        <ele>190.871</ele>
        <time>2015-08-04T11:50:35Z</time>
      </trkpt>
      <trkpt lat="44.88464" lon="1.25885">
        <ele>192.367</ele>
        <time>2015-08-04T11:50:55Z</time>
      </trkpt>
      <trkpt lat="44.88465" lon="1.25915">
        <ele>191.599</ele>
        <time>2015-08-04T11:51:15Z</time>
      </trkpt>
      <trkpt lat="44.88463" lon="1.25949">
        <ele>189.479</ele>
        <time>2015-08-04T11:51:35Z</time>
      </trkpt>
      <trkpt lat="44.88416" lon="1.26058">
        <ele>179.805</ele>
        <time>2015-08-04T11:51:55Z</time>
      </trkpt>
      <trkpt lat="44.88379" lon="1.26089">
        <ele>178.125</ele>
        <time>2015-08-04T11:52:15Z</time>
      </trkpt>
      <trkpt lat="44.88322" lon="1.26154">
        <ele>176.708</ele>
        <time>2015-08-04T11:52:35Z</time>
      </trkpt>
      <trkpt lat="44.88302" lon="1.26156">
        <ele>177.663</ele>
        <time>2015-08-04T11:52:55Z</time>
      </trkpt>
      <trkpt lat="44.88265" lon="1.26124">
        <ele>179.938</ele>
        <time>2015-08-04T11:53:15Z</time>
      </trkpt>
      <trkpt lat="44.88245" lon="1.26122">
        <ele>179.988</ele>
        <time>2015-08-04T11:53:35Z</time>
      </trkpt>
      <trkpt lat="44.88196" lon="1.26132">
        <ele>183.94</ele>
        <time>2015-08-04T11:53:55Z</time>
      </trkpt>
      <trkpt lat="44.8816" lon="1.26134">
        <ele>183.522</ele>
        <time>2015-08-04T11:54:15Z</time>
      </trkpt>
      <trkpt lat="44.88125" lon="1.26149">
        <ele>182.543</ele>
        <time>2015-08-04T11:54:35Z</time>
      </trkpt>
      <trkpt lat="44.88096" lon="1.26155">
        <ele>180.999</ele>
        <time>2015-08-04T11:54:55Z</time>
      </trkpt>
      <trkpt lat="44.88087" lon="1.26143">
        <ele>180.931</ele>
        <time>2015-08-04T11:55:15Z</time>
      </trkpt>
      <trkpt lat="44.88064" lon="1.26143">
        <ele>181.464</ele>
        <time>2015-08-04T11:55:35Z</time>
      </trkpt>
      <trkpt lat="44.88045" lon="1.26182">
        <ele>179.206</ele>
        <time>2015-08-04T11:55:55Z</time>
      </trkpt>
      <trkpt lat="44.88004" lon="1.26222">
        <ele>178.816</ele>
        <time>2015-08-04T11:56:15Z</time>
      </trkpt>
      <trkpt lat="44.87954" lon="1.26258">
        <ele>179.108</ele>
        <time>2015-08-04T11:56:35Z</time>
      </trkpt>
      <trkpt lat="44.87939" lon="1.26293">
        <ele>176.462</ele>
        <time>2015-08-04T11:56:55Z</time>
      </trkpt>
      <trkpt lat="44.87933" lon="1.2633">
        <ele>174.357</ele>
        <time>2015-08-04T11:57:15Z</time>
      </trkpt>
      <trkpt lat="44.87918" lon="1.26353">
        <ele>175.487</ele>
        <time>2015-08-04T11:57:35Z</time>
      </trkpt>
      <trkpt lat="44.87907" lon="1.26428">
        <ele>166.779</ele>
        <time>2015-08-04T11:57:55Z</time>
      </trkpt>
      <trkpt lat="44.8785" lon="1.26497">
        <ele>164.171</ele>
        <time>2015-08-04T11:58:15Z</time>
      </trkpt>
      <trkpt lat="44.87836" lon="1.26503">
        <ele>165.362</ele>
        <time>2015-08-04T11:58:35Z</time>
      </trkpt>
      <trkpt lat="44.87819" lon="1.2654">
        <ele>162.848</ele>
        <time>2015-08-04T11:58:55Z</time>
      </trkpt>
      <trkpt lat="44.87736" lon="1.26582">
        <ele>159.38</ele>
        <time>2015-08-04T11:59:15Z</time>
      </trkpt>
      <trkpt lat="44.87705" lon="1.26613">
        <ele>155.189</ele>
        <time>2015-08-04T11:59:35Z</time>
      </trkpt>
      <trkpt lat="44.87701" lon="1.26667">
        <ele>150.006</ele>
        <time>2015-08-04T11:59:55Z</time>
      </trkpt>
      <trkpt lat="44.87691" lon="1.2672">
        <ele>148.026</ele>
        <time>2015-08-04T12:00:15Z</time>
      </trkpt>
      <trkpt lat="44.87666" lon="1.26776">
        <ele>147.008</ele>
        <time>2015-08-04T12:00:35Z</time>
      </trkpt>
      <trkpt lat="44.87638" lon="1.26815">
        <ele>145.184</ele>
        <time>2015-08-04T12:00:55Z</time>
      </trkpt>
      <trkpt lat="44.8761" lon="1.26867">
        <ele>142.129</ele>
        <time>2015-08-04T12:01:15Z</time>
      </trkpt>
      <trkpt lat="44.87586" lon="1.26895">
        <ele>141.829</ele>
        <time>2015-08-04T12:01:35Z</time>
      </trkpt>
      <trkpt lat="44.87564" lon="1.26936">
        <ele>138.951</ele>
        <time>2015-08-04T12:01:55Z</time>
      </trkpt>
      <trkpt lat="44.87468" lon="1.26922">
        <ele>138.683</ele>
        <time>2015-08-04T12:02:15Z</time>
      </trkpt>
      <trkpt lat="44.87379" lon="1.26936">
        <ele>131.984</ele>
        <time>2015-08-04T12:02:35Z</time>
      </trkpt>
      <trkpt lat="44.87366" lon="1.26932">
        <ele>132.05</ele>
        <time>2015-08-04T12:02:55Z</time>
      </trkpt>
      <trkpt lat="44.8729" lon="1.26972">
        <ele>135.152</ele>
        <time>2015-08-04T12:03:15Z</time>
      </trkpt>
      <trkpt lat="44.87265" lon="1.27017">
        <ele>136.777</ele>
        <time>2015-08-04T12:03:35Z</time>
      </trkpt>
      <trkpt lat="44.87249" lon="1.27067">
        <ele>137.661</ele>
        <time>2015-08-04T12:03:55Z</time>
      </trkpt>
      <trkpt lat="44.87247" lon="1.27099">
        <ele>138.627</ele>
        <time>2015-08-04T12:04:15Z</time>
      </trkpt>
      <trkpt lat="44.87258" lon="1.27182">
        <ele>135.208</ele>
        <time>2015-08-04T12:04:35Z</time>
      </trkpt>
      <trkpt lat="44.87276" lon="1.27225">
        <ele>134.523</ele>
        <time>2015-08-04T12:04:55Z</time>
      </trkpt>
      <trkpt lat="44.87291" lon="1.2728">
        <ele>130.618</ele>
        <time>2015-08-04T12:05:15Z</time>
      </trkpt>
      <trkpt lat="44.87335" lon="1.27349">
        <ele>125.258</ele>
        <time>2015-08-04T12:05:35Z</time>
      </trkpt>
      <trkpt lat="44.87378" lon="1.27376">
        <ele>123.91</ele>
        <time>2015-08-04T12:05:55Z</time>
      </trkpt>
      <trkpt lat="44.87403" lon="1.27445">
        <ele>129.632</ele>
        <time>2015-08-04T12:06:15Z</time>
      </trkpt>
      <trkpt lat="44.87423" lon="1.27523">
        <ele>124.773</ele>
        <time>2015-08-04T12:06:35Z</time>
      </trkpt>
      <trkpt lat="44.87421" lon="1.27593">
        <ele>121.629</ele>
        <time>2015-08-04T12:06:55Z</time>
      </trkpt>
      <trkpt lat="44.87437" lon="1.27642">
        <ele>119.111</ele>
        <time>2015-08-04T12:07:15Z</time>
      </trkpt>
      <trkpt lat="44.87427" lon="1.27738">
        <ele>116.279</ele>
        <time>2015-08-04T12:07:35Z</time>
      </trkpt>
      <trkpt lat="44.874" lon="1.27771">
        <ele>118.105</ele>
        <time>2015-08-04T12:07:55Z</time>
      </trkpt>
      <trkpt lat="44.8746" lon="1.27786">
        <ele>110.625</ele>
        <time>2015-08-04T12:08:15Z</time>
      </trkpt>
      <trkpt lat="44.87524" lon="1.2779">
        <ele>114.908</ele>
        <time>2015-08-04T12:08:35Z</time>
      </trkpt>
      <trkpt lat="44.8755" lon="1.27804">
        <ele>120.153</ele>
        <time>2015-08-04T12:08:55Z</time>
      </trkpt>
      <trkpt lat="44.87616" lon="1.2788">
        <ele>125.598</ele>
        <time>2015-08-04T12:09:15Z</time>
      </trkpt>
      <trkpt lat="44.87662" lon="1.27864">
        <ele>124.948</ele>
        <time>2015-08-04T12:09:35Z</time>
      </trkpt>
      <trkpt lat="44.87713" lon="1.27878">
        <ele>127.92</ele>
        <time>2015-08-04T12:09:55Z</time>
      </trkpt>
      <trkpt lat="44.87751" lon="1.27901">
        <ele>130.942</ele>
        <time>2015-08-04T12:10:15Z</time>
      </trkpt>
      <trkpt lat="44.87776" lon="1.27929">
        <ele>133.443</ele>
        <time>2015-08-04T12:10:35Z</time>
      </trkpt>
      <trkpt lat="44.87816" lon="1.27962">
        <ele>140.889</ele>
        <time>2015-08-04T12:10:55Z</time>
      </trkpt>
      <trkpt lat="44.87868" lon="1.27996">
        <ele>143.511</ele>
        <time>2015-08-04T12:11:15Z</time>
      </trkpt>
      <trkpt lat="44.87897" lon="1.28035">
        <ele>140.737</ele>
        <time>2020-03-06T16:37:37Z</time>
      </trkpt>
      <trkpt lat="44.87919" lon="1.28078">
        <ele>139.749</ele>
        <time>2015-08-04T12:11:55Z</time>
      </trkpt>
      <trkpt lat="44.87942" lon="1.2815">
        <ele>132.613</ele>
        <time>2015-08-04T12:12:15Z</time>
      </trkpt>
      <trkpt lat="44.87945" lon="1.28188">
        <ele>127.708</ele>
        <time>2015-08-04T12:12:35Z</time>
      </trkpt>
      <trkpt lat="44.87933" lon="1.28205">
        <ele>126.019</ele>
        <time>2015-08-04T12:12:55Z</time>
      </trkpt>
      <trkpt lat="44.87925" lon="1.28239">
        <ele>122.554</ele>
        <time>2015-08-04T12:13:15Z</time>
      </trkpt>
      <trkpt lat="44.87889" lon="1.28274">
        <ele>119.984</ele>
        <time>2015-08-04T12:13:35Z</time>
      </trkpt>
      <trkpt lat="44.8787" lon="1.28296">
        <ele>117.036</ele>
        <time>2015-08-04T12:13:55Z</time>
      </trkpt>
      <trkpt lat="44.87855" lon="1.28348">
        <ele>111.818</ele>
        <time>2015-08-04T12:14:15Z</time>
      </trkpt>
      <trkpt lat="44.87844" lon="1.28352">
        <ele>110.199</ele>
        <time>2015-08-04T12:14:35Z</time>
      </trkpt>
      <trkpt lat="44.87837" lon="1.28402">
        <ele>101.315</ele>
        <time>2015-08-04T12:14:55Z</time>
      </trkpt>
      <trkpt lat="44.8784" lon="1.28448">
        <ele>100.337</ele>
        <time>2015-08-04T12:15:15Z</time>
      </trkpt>
      <trkpt lat="44.87764" lon="1.28565">
        <ele>99.851</ele>
        <time>2015-08-04T12:15:35Z</time>
      </trkpt>
      <trkpt lat="44.87734" lon="1.28591">
        <ele>102.701</ele>
        <time>2015-08-04T12:15:55Z</time>
      </trkpt>
      <trkpt lat="44.87789" lon="1.28635">
        <ele>104.611</ele>
        <time>2015-08-04T12:16:15Z</time>
      </trkpt>
      <trkpt lat="44.87813" lon="1.28672">
        <ele>106.108</ele>
        <time>2015-08-04T12:16:35Z</time>
      </trkpt>
      <trkpt lat="44.87831" lon="1.28754">
        <ele>104.771</ele>
        <time>2015-08-04T12:16:55Z</time>
      </trkpt>
      <trkpt lat="44.87911" lon="1.28896">
        <ele>103.936</ele>
        <time>2015-08-04T12:17:15Z</time>
      </trkpt>
      <trkpt lat="44.87945" lon="1.28964">
        <ele>102.026</ele>
        <time>2015-08-04T12:17:35Z</time>
      </trkpt>
      <trkpt lat="44.87943" lon="1.28991">
        <ele>104.578</ele>
        <time>2015-08-04T12:17:55Z</time>
      </trkpt>
      <trkpt lat="44.87894" lon="1.29071">
        <ele>106.34</ele>
        <time>2015-08-04T12:18:15Z</time>
      </trkpt>
      <trkpt lat="44.87891" lon="1.29086">
        <ele>104.621</ele>
        <time>2015-08-04T12:18:35Z</time>
      </trkpt>
      <trkpt lat="44.87899" lon="1.29166">
        <ele>102.077</ele>
        <time>2015-08-04T12:18:55Z</time>
      </trkpt>
      <trkpt lat="44.87868" lon="1.29215">
        <ele>104.579</ele>
        <time>2015-08-04T12:19:15Z</time>
      </trkpt>
      <trkpt lat="44.87822" lon="1.29273">
        <ele>106.821</ele>
        <time>2015-08-04T12:19:35Z</time>
      </trkpt>
      <trkpt lat="44.878" lon="1.29349">
        <ele>107.441</ele>
        <time>2015-08-04T12:19:55Z</time>
      </trkpt>
      <trkpt lat="44.87825" lon="1.29359">
        <ele>106.305</ele>
        <time>2015-08-04T12:20:15Z</time>
      </trkpt>
      <trkpt lat="44.87882" lon="1.29387">
        <ele>106.708</ele>
        <time>2015-08-04T12:20:35Z</time>
      </trkpt>
      <trkpt lat="44.87926" lon="1.29379">
        <ele>108.848</ele>
        <time>2015-08-04T12:20:55Z</time>
      </trkpt>
      <trkpt lat="44.87907" lon="1.29601">
        <ele>114.353</ele>
        <time>2015-08-04T12:21:15Z</time>
      </trkpt>
      <trkpt lat="44.87891" lon="1.2979">
        <ele>126.873</ele>
        <time>2015-08-04T12:21:35Z</time>
      </trkpt>
      <trkpt lat="44.87895" lon="1.29882">
        <ele>130.545</ele>
        <time>2015-08-04T12:21:55Z</time>
      </trkpt>
      <trkpt lat="44.87904" lon="1.2995">
        <ele>136.937</ele>
        <time>2015-08-04T12:22:15Z</time>
      </trkpt>
      <trkpt lat="44.87898" lon="1.30007">
        <ele>145.088</ele>
        <time>2015-08-04T12:22:35Z</time>
      </trkpt>
      <trkpt lat="44.87896" lon="1.30117">
        <ele>151.264</ele>
        <time>2015-08-04T12:22:55Z</time>
      </trkpt>
      <trkpt lat="44.87906" lon="1.30144">
        <ele>151.856</ele>
        <time>2015-08-04T12:23:15Z</time>
      </trkpt>
      <trkpt lat="44.87937" lon="1.30181">
        <ele>153.951</ele>
        <time>2015-08-04T12:23:35Z</time>
      </trkpt>
      <trkpt lat="44.87961" lon="1.30222">
        <ele>157.501</ele>
        <time>2015-08-04T12:23:55Z</time>
      </trkpt>
      <trkpt lat="44.87939" lon="1.30244">
        <ele>157.411</ele>
        <time>2015-08-04T12:24:15Z</time>
      </trkpt>
      <trkpt lat="44.87928" lon="1.30277">
        <ele>157.008</ele>
        <time>2015-08-04T12:24:35Z</time>
      </trkpt>
      <trkpt lat="44.87923" lon="1.30307">
        <ele>155.931</ele>
        <time>2015-08-04T12:24:55Z</time>
      </trkpt>
      <trkpt lat="44.87891" lon="1.30403">
        <ele>145.766</ele>
        <time>2015-08-04T12:25:15Z</time>
      </trkpt>
      <trkpt lat="44.87889" lon="1.30447">
        <ele>141.526</ele>
        <time>2015-08-04T12:25:35Z</time>
      </trkpt>
      <trkpt lat="44.87864" lon="1.30502">
        <ele>131.058</ele>
        <time>2015-08-04T12:25:55Z</time>
      </trkpt>
      <trkpt lat="44.8786" lon="1.3052">
        <ele>128.93</ele>
        <time>2015-08-04T12:26:15Z</time>
      </trkpt>
      <trkpt lat="44.87837" lon="1.30565">
        <ele>132.391</ele>
        <time>2015-08-04T12:26:35Z</time>
      </trkpt>
      <trkpt lat="44.87842" lon="1.30648">
        <ele>136.987</ele>
        <time>2015-08-04T12:26:55Z</time>
      </trkpt>
      <trkpt lat="44.87863" lon="1.30727">
        <ele>132.239</ele>
        <time>2015-08-04T12:27:15Z</time>
      </trkpt>
      <trkpt lat="44.8788" lon="1.30769">
        <ele>134.867</ele>
        <time>2015-08-04T12:27:35Z</time>
      </trkpt>
      <trkpt lat="44.87884" lon="1.30806">
        <ele>135.981</ele>
        <time>2015-08-04T12:27:55Z</time>
      </trkpt>
      <trkpt lat="44.87852" lon="1.30994">
        <ele>150.519</ele>
        <time>2015-08-04T12:28:15Z</time>
      </trkpt>
      <trkpt lat="44.8784" lon="1.31059">
        <ele>159.808</ele>
        <time>2015-08-04T12:28:35Z</time>
      </trkpt>
      <trkpt lat="44.87833" lon="1.31114">
        <ele>165.672</ele>
        <time>2015-08-04T12:28:55Z</time>
      </trkpt>
      <trkpt lat="44.87839" lon="1.31138">
        <ele>168.367</ele>
        <time>2015-08-04T12:29:15Z</time>
      </trkpt>
      <trkpt lat="44.87876" lon="1.31178">
        <ele>166.187</ele>
        <time>2015-08-04T12:29:35Z</time>
      </trkpt>
      <trkpt lat="44.87881" lon="1.31203">
        <ele>165.599</ele>
        <time>2015-08-04T12:29:55Z</time>
      </trkpt>
      <trkpt lat="44.87877" lon="1.31223">
        <ele>165.381</ele>
        <time>2015-08-04T12:30:15Z</time>
      </trkpt>
      <trkpt lat="44.87751" lon="1.31357">
        <ele>174.852</ele>
        <time>2015-08-04T12:30:35Z</time>
      </trkpt>
      <trkpt lat="44.87673" lon="1.31415">
        <ele>186.748</ele>
        <time>2015-08-04T12:30:55Z</time>
      </trkpt>
      <trkpt lat="44.87622" lon="1.31531">
        <ele>185.77</ele>
        <time>2015-08-04T12:31:15Z</time>
      </trkpt>
      <trkpt lat="44.87608" lon="1.31631">
        <ele>190.293</ele>
        <time>2015-08-04T12:31:35Z</time>
      </trkpt>
      <trkpt lat="44.87616" lon="1.31847">
        <ele>204.765</ele>
        <time>2015-08-04T12:31:55Z</time>
      </trkpt>
      <trkpt lat="44.87588" lon="1.31977">
        <ele>212.021</ele>
        <time>2015-08-04T12:32:15Z</time>
      </trkpt>
      <trkpt lat="44.87674" lon="1.32206">
        <ele>221.608</ele>
        <time>2015-08-04T12:32:35Z</time>
      </trkpt>
      <trkpt lat="44.8772" lon="1.3229">
        <ele>228.145</ele>
        <time>2015-08-04T12:32:55Z</time>
      </trkpt>
      <trkpt lat="44.87754" lon="1.32389">
        <ele>231.08</ele>
        <time>2015-08-04T12:33:15Z</time>
      </trkpt>
      <trkpt lat="44.87787" lon="1.32432">
        <ele>235.23</ele>
        <time>2015-08-04T12:33:35Z</time>
      </trkpt>
      <trkpt lat="44.87898" lon="1.32521">
        <ele>234.382</ele>
        <time>2015-08-04T12:33:55Z</time>
      </trkpt>
      <trkpt lat="44.88018" lon="1.32632">
        <ele>240.134</ele>
        <time>2015-08-04T12:34:15Z</time>
      </trkpt>
      <trkpt lat="44.88036" lon="1.32744">
        <ele>241.685</ele>
        <time>2015-08-04T12:34:35Z</time>
      </trkpt>
      <trkpt lat="44.88059" lon="1.32841">
        <ele>243.451</ele>
        <time>2015-08-04T12:34:55Z</time>
      </trkpt>
      <trkpt lat="44.88066" lon="1.32938">
        <ele>243.913</ele>
        <time>2015-08-04T12:35:15Z</time>
      </trkpt>
      <trkpt lat="44.88078" lon="1.33061">
        <ele>243.737</ele>
        <time>2015-08-04T12:35:35Z</time>
      </trkpt>
      <trkpt lat="44.88051" lon="1.33239">
        <ele>239.049</ele>
        <time>2015-08-04T12:35:55Z</time>
      </trkpt>
      <trkpt lat="44.8808" lon="1.33332">
        <ele>234.113</ele>
        <time>2015-08-04T12:36:15Z</time>
      </trkpt>
      <trkpt lat="44.88126" lon="1.33371">
        <ele>229.008</ele>
        <time>2015-08-04T12:36:35Z</time>
      </trkpt>
      <trkpt lat="44.88144" lon="1.33409">
        <ele>222.279</ele>
        <time>2015-08-04T12:36:55Z</time>
      </trkpt>
      <trkpt lat="44.88149" lon="1.33487">
        <ele>215.674</ele>
        <time>2015-08-04T12:37:15Z</time>
      </trkpt>
      <trkpt lat="44.88166" lon="1.33533">
        <ele>211.184</ele>
        <time>2015-08-04T12:37:35Z</time>
      </trkpt>
      <trkpt lat="44.88213" lon="1.33584">
        <ele>203.066</ele>
        <time>2015-08-04T12:37:55Z</time>
      </trkpt>
      <trkpt lat="44.88241" lon="1.33638">
        <ele>202.048</ele>
        <time>2015-08-04T12:38:15Z</time>
      </trkpt>
      <trkpt lat="44.8826" lon="1.33713">
        <ele>196.529</ele>
        <time>2015-08-04T12:38:35Z</time>
      </trkpt>
      <trkpt lat="44.88281" lon="1.33762">
        <ele>193.955</ele>
        <time>2015-08-04T12:38:55Z</time>
      </trkpt>
      <trkpt lat="44.88283" lon="1.33804">
        <ele>192.137</ele>
        <time>2015-08-04T12:39:15Z</time>
      </trkpt>
      <trkpt lat="44.88334" lon="1.3387">
        <ele>184.334</ele>
        <time>2015-08-04T12:39:35Z</time>
      </trkpt>
      <trkpt lat="44.88352" lon="1.33913">
        <ele>182.755</ele>
        <time>2015-08-04T12:39:55Z</time>
      </trkpt>
      <trkpt lat="44.88341" lon="1.34009">
        <ele>182.41</ele>
        <time>2015-08-04T12:40:15Z</time>
      </trkpt>
      <trkpt lat="44.88306" lon="1.34065">
        <ele>179.408</ele>
        <time>2015-08-04T12:40:35Z</time>
      </trkpt>
      <trkpt lat="44.8832" lon="1.34128">
        <ele>183.679</ele>
        <time>2015-08-04T12:40:55Z</time>
      </trkpt>
      <trkpt lat="44.88318" lon="1.34181">
        <ele>182.434</ele>
        <time>2015-08-04T12:41:15Z</time>
      </trkpt>
      <trkpt lat="44.88333" lon="1.34268">
        <ele>180.394</ele>
        <time>2015-08-04T12:41:35Z</time>
      </trkpt>
      <trkpt lat="44.88337" lon="1.34484">
        <ele>182.636</ele>
        <time>2015-08-04T12:41:55Z</time>
      </trkpt>
      <trkpt lat="44.88286" lon="1.34655">
        <ele>178.518</ele>
        <time>2015-08-04T12:42:15Z</time>
      </trkpt>
      <trkpt lat="44.88252" lon="1.34683">
        <ele>174.739</ele>
        <time>2015-08-04T12:42:35Z</time>
      </trkpt>
      <trkpt lat="44.88217" lon="1.34742">
        <ele>166.135</ele>
        <time>2015-08-04T12:42:55Z</time>
      </trkpt>
      <trkpt lat="44.88202" lon="1.34781">
        <ele>164.347</ele>
        <time>2015-08-04T12:43:15Z</time>
      </trkpt>
      <trkpt lat="44.88119" lon="1.34887">
        <ele>141.222</ele>
        <time>2015-08-04T12:43:35Z</time>
      </trkpt>
      <trkpt lat="44.88115" lon="1.34933">
        <ele>135.462</ele>
        <time>2015-08-04T12:43:55Z</time>
      </trkpt>
      <trkpt lat="44.88217" lon="1.35024">
        <ele>132.108</ele>
        <time>2015-08-04T12:44:15Z</time>
      </trkpt>
      <trkpt lat="44.88221" lon="1.35052">
        <ele>130.108</ele>
        <time>2015-08-04T12:44:35Z</time>
      </trkpt>
      <trkpt lat="44.88214" lon="1.35092">
        <ele>130.698</ele>
        <time>2015-08-04T12:44:55Z</time>
      </trkpt>
      <trkpt lat="44.88191" lon="1.35118">
        <ele>133.373</ele>
        <time>2015-08-04T12:45:15Z</time>
      </trkpt>
      <trkpt lat="44.88215" lon="1.35139">
        <ele>137.393</ele>
        <time>2015-08-04T12:45:35Z</time>
      </trkpt>
      <trkpt lat="44.88226" lon="1.352">
        <ele>150.715</ele>
        <time>2015-08-04T12:45:55Z</time>
      </trkpt>
      <trkpt lat="44.88268" lon="1.35217">
        <ele>156.617</ele>
        <time>2020-03-06T17:12:17Z</time>
      </trkpt>
      <trkpt lat="44.88314" lon="1.35173">
        <ele>149.898</ele>
        <time>2020-03-06T17:12:37Z</time>
      </trkpt>
      <trkpt lat="44.88392" lon="1.35173">
        <ele>154.334</ele>
        <time>2020-03-06T17:12:57Z</time>
      </trkpt>
      <trkpt lat="44.8842" lon="1.35241">
        <ele>162.996</ele>
        <time>2020-03-06T17:13:17Z</time>
      </trkpt>
      <trkpt lat="44.88418" lon="1.35337">
        <ele>170.186</ele>
        <time>2015-08-04T12:47:15Z</time>
      </trkpt>
    </trkseg>
  </trk>
</gpx>